Time;durP1;ratioP1;P1;durP2;ratioP2;P2;SDS_P1;SDS_P2;PMS_P1;PMS_P2;Temp;Humidity;BMP_temperature;BMP_pressure;BME280_temperature;BME280_humidity;BME280_pressure;Samples;Min_cycle;Max_cycle;Signal;HPM_P1;HPM_P2
2021/01/06 00:00:53;;;;;;;102.13;45.70;;;102.90;2227.20;;;;;;5054099;28;20040;-57
2021/01/06 00:03:21;;;;;;;103.38;46.70;;;102.90;2227.20;;;;;;5054078;28;20029;-57
2021/01/06 00:05:52;;;;;;;96.90;43.53;;;102.90;2227.20;;;;;;5036399;28;20032;-57
2021/01/06 00:08:20;;;;;;;107.72;46.72;;;102.80;2227.20;;;;;;5036208;28;20550;-57
2021/01/06 00:10:54;;;;;;;116.95;51.78;;;102.80;2227.20;;;;;;5054085;28;20374;-56
2021/01/06 00:13:19;;;;;;;104.97;45.78;;;102.70;2227.20;;;;;;5053689;28;20471;-57
2021/01/06 00:15:46;;;;;;;108.00;47.75;;;102.80;2227.20;;;;;;5051002;28;20036;-57
2021/01/06 00:18:13;;;;;;;112.30;48.53;;;102.70;2227.20;;;;;;5049087;28;20029;-57
2021/01/06 00:20:40;;;;;;;103.30;45.70;;;102.70;2227.20;;;;;;5053664;28;20174;-57
2021/01/06 00:23:05;;;;;;;98.60;45.92;;;102.70;2227.20;;;;;;5054085;28;20021;-57
2021/01/06 00:25:34;;;;;;;103.18;48.08;;;102.70;2227.20;;;;;;5053724;28;20425;-57
2021/01/06 00:28:02;;;;;;;99.78;45.17;;;102.80;2227.20;;;;;;5052079;28;20052;-58
2021/01/06 00:30:29;;;;;;;103.20;45.80;;;102.70;2227.20;;;;;;5053674;28;20016;-57
2021/01/06 00:32:55;;;;;;;101.47;45.03;;;102.70;2227.20;;;;;;5053757;28;20029;-58
2021/01/06 00:35:23;;;;;;;98.82;44.90;;;102.80;2227.20;;;;;;5053656;28;20021;-57
2021/01/06 00:37:49;;;;;;;103.95;48.08;;;102.80;2227.20;;;;;;5053592;28;20025;-57
2021/01/06 00:40:17;;;;;;;103.38;45.60;;;102.70;2227.20;;;;;;5034962;28;20029;-57
2021/01/06 00:42:42;;;;;;;105.85;46.90;;;102.70;2227.20;;;;;;5053742;28;20158;-57
2021/01/06 00:45:13;;;;;;;107.90;48.30;;;102.80;2227.20;;;;;;5053561;28;20112;-57
2021/01/06 00:47:40;;;;;;;108.05;47.20;;;102.80;2227.20;;;;;;5053495;28;20056;-57
2021/01/06 00:50:07;;;;;;;107.68;47.05;;;102.80;2227.20;;;;;;5053148;28;20032;-57
2021/01/06 00:52:33;;;;;;;103.82;46.28;;;102.80;2227.20;;;;;;5053638;28;20055;-57
2021/01/06 00:54:59;;;;;;;98.30;45.08;;;102.80;2227.20;;;;;;5053648;28;20108;-57
2021/01/06 00:57:24;;;;;;;98.50;42.47;;;102.80;2227.20;;;;;;5053129;28;20036;-56
2021/01/06 00:59:50;;;;;;;97.18;45.20;;;102.80;2227.20;;;;;;5053390;28;20058;-57
2021/01/06 01:02:16;;;;;;;98.47;43.42;;;102.80;2227.20;;;;;;5053420;28;20036;-57
2021/01/06 01:04:45;;;;;;;102.25;45.10;;;102.80;2227.20;;;;;;5053152;28;20398;-57
2021/01/06 01:07:10;;;;;;;98.78;45.60;;;102.70;2227.20;;;;;;5053494;28;20033;-56
2021/01/06 01:09:36;;;;;;;97.18;42.65;;;102.70;2227.20;;;;;;5053456;28;20508;-57
2021/01/06 01:12:07;;;;;;;95.32;44.47;;;102.70;2227.20;;;;;;5052876;28;20040;-57
2021/01/06 01:14:33;;;;;;;94.70;44.50;;;102.60;2227.20;;;;;;5052927;28;20045;-57
2021/01/06 01:17:01;;;;;;;96.28;43.83;;;102.60;2227.20;;;;;;5053230;28;20551;-56
2021/01/06 01:19:27;;;;;;;97.20;42.58;;;102.60;2227.20;;;;;;5053109;28;20028;-57
2021/01/06 01:21:52;;;;;;;96.32;44.03;;;102.60;2227.20;;;;;;5052840;28;20044;-57
2021/01/06 01:24:18;;;;;;;97.50;42.55;;;102.60;2227.20;;;;;;5053208;28;20528;-57
2021/01/06 01:26:44;;;;;;;88.70;41.28;;;102.60;2227.20;;;;;;5053164;28;20116;-57
2021/01/06 01:29:09;;;;;;;98.32;42.97;;;102.60;2227.20;;;;;;5053177;28;20036;-57
2021/01/06 01:31:36;;;;;;;88.75;41.85;;;102.50;2227.20;;;;;;5052788;28;20059;-57
2021/01/06 01:34:04;;;;;;;92.88;39.75;;;102.50;2227.20;;;;;;5052668;28;20444;-57
2021/01/06 01:36:30;;;;;;;89.25;41.30;;;102.40;2227.20;;;;;;5053070;28;20083;-57
2021/01/06 01:38:57;;;;;;;88.93;40.20;;;102.40;2227.20;;;;;;5053246;28;20085;-56
2021/01/06 01:41:25;;;;;;;94.90;42.00;;;102.40;2227.20;;;;;;5053901;28;20493;-57
2021/01/06 01:43:51;;;;;;;95.18;41.47;;;77.70;2227.20;;;;;;5051646;28;20029;-57
2021/01/06 01:46:20;;;;;;;97.60;43.25;;;77.70;2227.20;;;;;;5055298;28;20025;-57
2021/01/06 01:48:49;;;;;;;89.55;40.60;;;77.70;2227.20;;;;;;5055549;28;20021;-57
2021/01/06 01:51:26;;;;;;;89.60;40.83;;;77.70;2227.20;;;;;;5056452;28;20021;-57
2021/01/06 01:54:09;;;;;;;84.93;38.10;;;77.70;2227.20;;;;;;5056081;28;20021;-57
2021/01/06 01:56:54;;;;;;;85.93;40.13;;;77.70;2227.20;;;;;;5056446;28;20116;-57
2021/01/06 01:59:38;;;;;;;85.53;38.95;;;77.70;2227.20;;;;;;5052656;28;20116;-57
2021/01/06 02:02:13;;;;;;;82.10;38.30;;;77.70;2227.20;;;;;;5056465;28;20056;-58
2021/01/06 02:04:58;;;;;;;83.30;37.85;;;77.60;2227.20;;;;;;5056443;28;20359;-57
2021/01/06 02:07:27;;;;;;;84.85;37.97;;;77.60;2227.20;;;;;;5056637;28;20027;-57
2021/01/06 02:09:59;;;;;;;90.90;39.42;;;77.60;2227.20;;;;;;5056067;28;20021;-57
2021/01/06 02:12:50;;;;;;;83.28;38.35;;;77.60;2227.20;;;;;;5052499;28;20102;-57
2021/01/06 02:15:51;;;;;;;81.65;36.47;;;77.60;2227.20;;;;;;5055189;28;20406;-57
2021/01/06 02:18:17;;;;;;;86.47;37.78;;;77.60;2227.20;;;;;;5053360;28;20025;-57
2021/01/06 02:21:04;;;;;;;93.03;40.42;;;77.60;2227.20;;;;;;5055770;28;20037;-57
2021/01/06 02:23:30;;;;;;;88.80;40.97;;;77.50;2227.20;;;;;;5046194;28;20116;-57
2021/01/06 02:25:56;;;;;;;85.95;39.20;;;77.50;2227.20;;;;;;5048526;28;20037;-57
2021/01/06 02:28:22;;;;;;;86.10;39.95;;;77.40;2227.20;;;;;;5056142;28;20036;-57
2021/01/06 02:30:48;;;;;;;84.07;39.30;;;77.40;2227.20;;;;;;5056037;28;20021;-57
2021/01/06 02:33:14;;;;;;;85.32;40.65;;;77.40;2227.20;;;;;;5056276;28;20094;-57
2021/01/06 02:35:39;;;;;;;83.68;38.67;;;77.40;2227.20;;;;;;5054946;28;20111;-57
2021/01/06 02:38:05;;;;;;;86.25;38.53;;;77.40;2227.20;;;;;;5055957;28;20032;-57
2021/01/06 02:40:31;;;;;;;82.38;37.97;;;77.50;2227.20;;;;;;5055424;28;20029;-57
2021/01/06 02:42:57;;;;;;;82.25;37.85;;;77.50;2227.20;;;;;;5055779;28;20057;-57
2021/01/06 02:45:23;;;;;;;78.88;38.78;;;77.60;2227.20;;;;;;5055111;28;20021;-57
2021/01/06 02:47:50;;;;;;;80.22;38.28;;;77.60;2227.20;;;;;;5055616;28;20493;-57
2021/01/06 02:50:21;;;;;;;85.10;38.78;;;77.60;2227.20;;;;;;5055281;28;20024;-57
2021/01/06 02:52:53;;;;;;;85.88;40.28;;;77.60;2227.20;;;;;;5053820;28;20374;-57
2021/01/06 02:55:19;;;;;;;83.10;39.85;;;77.60;2227.20;;;;;;5056000;28;20017;-57
2021/01/06 02:57:46;;;;;;;80.72;38.42;;;77.70;2227.20;;;;;;5055195;28;20021;-57
2021/01/06 03:00:21;;;;;;;79.95;38.75;;;77.70;2227.20;;;;;;5055540;28;20478;-57
2021/01/06 03:02:49;;;;;;;77.68;37.80;;;102.40;2227.20;;;;;;5055286;28;20385;-57
2021/01/06 03:05:26;;;;;;;82.57;39.97;;;102.40;2227.20;;;;;;5055565;28;20043;-57
2021/01/06 03:07:52;;;;;;;80.18;39.45;;;102.50;2227.20;;;;;;5055502;28;20017;-57
2021/01/06 03:10:20;;;;;;;84.28;40.53;;;102.50;2227.20;;;;;;5055823;28;20075;-57
2021/01/06 03:12:47;;;;;;;78.40;38.85;;;102.40;2227.20;;;;;;5055274;28;20036;-57
2021/01/06 03:15:15;;;;;;;83.32;40.05;;;102.50;2227.20;;;;;;5055110;28;20061;-57
2021/01/06 03:17:41;;;;;;;84.78;40.10;;;102.40;2227.20;;;;;;5055308;28;20036;-57
2021/01/06 03:20:12;;;;;;;80.35;40.10;;;102.50;2227.20;;;;;;5054998;28;20032;-57
2021/01/06 03:22:42;;;;;;;81.30;39.67;;;102.40;2227.20;;;;;;5054435;28;20068;-57
2021/01/06 03:25:11;;;;;;;83.10;39.38;;;102.40;2227.20;;;;;;5055291;28;20111;-57
2021/01/06 03:27:38;;;;;;;87.43;41.40;;;102.40;2227.20;;;;;;5054409;28;20112;-57
2021/01/06 03:30:07;;;;;;;82.22;39.90;;;102.40;2227.20;;;;;;5055252;28;20025;-57
2021/01/06 03:33:02;;;;;;;80.70;38.78;;;102.40;2227.20;;;;;;5054865;28;20025;-57
2021/01/06 03:35:44;;;;;;;77.88;38.10;;;102.40;2227.20;;;;;;5013136;28;20050;-57
2021/01/06 03:38:15;;;;;;;80.05;39.42;;;102.40;2227.20;;;;;;5013119;28;20041;-57
2021/01/06 03:40:47;;;;;;;73.95;38.03;;;77.70;2227.20;;;;;;5012973;28;20049;-57
2021/01/06 03:43:15;;;;;;;75.35;38.67;;;77.70;2227.20;;;;;;5012242;28;20086;-57
2021/01/06 03:45:43;;;;;;;78.72;38.45;;;77.70;2227.20;;;;;;5012984;28;20042;-57
2021/01/06 03:48:42;;;;;;;77.30;38.55;;;77.70;2227.20;;;;;;5012224;28;20066;-57
2021/01/06 03:51:30;;;;;;;67.90;36.47;;;77.70;2227.20;;;;;;4993226;28;20057;-57
2021/01/06 03:54:02;;;;;;;70.90;35.08;;;77.70;2227.20;;;;;;4993301;28;20361;-57
2021/01/06 03:56:31;;;;;;;66.32;34.85;;;102.40;2227.20;;;;;;4993511;28;20072;-57
2021/01/06 03:59:12;;;;;;;68.80;34.28;;;102.50;2227.20;;;;;;4993785;28;20038;-57
2021/01/06 04:01:59;;;;;;;69.70;35.35;;;102.50;2227.20;;;;;;4993058;28;20070;-58
2021/01/06 04:04:43;;;;;;;73.32;35.92;;;102.60;2227.20;;;;;;4992727;28;20030;-57
2021/01/06 04:07:30;;;;;;;74.60;37.10;;;102.60;2227.20;;;;;;4993257;28;20042;-57
2021/01/06 04:10:02;;;;;;;71.88;36.35;;;102.60;2227.20;;;;;;4993231;28;20397;-57
2021/01/06 04:12:28;;;;;;;72.93;37.00;;;102.60;2227.20;;;;;;4992892;28;20033;-57
2021/01/06 04:14:53;;;;;;;72.85;37.90;;;102.60;2227.20;;;;;;4992714;28;20133;-57
2021/01/06 04:17:37;;;;;;;65.80;35.58;;;102.60;2227.20;;;;;;5000897;28;20026;-57
2021/01/06 04:20:29;;;;;;;69.32;35.50;;;102.70;2227.20;;;;;;4992784;28;20031;-57
2021/01/06 04:23:00;;;;;;;77.57;39.20;;;102.70;2227.20;;;;;;4953971;29;20035;-57
2021/01/06 04:25:29;;;;;;;71.80;37.05;;;102.80;2227.20;;;;;;4954365;29;20031;-57
2021/01/06 04:27:59;;;;;;;75.78;40.10;;;102.80;2227.20;;;;;;4953061;29;20063;-57
2021/01/06 04:30:41;;;;;;;67.82;36.63;;;102.80;2227.20;;;;;;4953873;29;20027;-57
2021/01/06 04:33:11;;;;;;;71.07;39.85;;;102.80;2227.20;;;;;;4952987;29;20110;-57
2021/01/06 04:35:37;;;;;;;76.35;42.42;;;102.90;2227.20;;;;;;4953705;29;20031;-57
2021/01/06 04:38:04;;;;;;;72.43;37.53;;;103.00;2227.20;;;;;;4954020;29;20035;-57
2021/01/06 04:40:40;;;;;;;64.80;34.60;;;103.00;2227.20;;;;;;4953729;29;20186;-57
2021/01/06 04:43:34;;;;;;;65.47;35.20;;;103.00;2227.20;;;;;;4953783;29;20054;-57
2021/01/06 04:46:29;;;;;;;65.22;34.92;;;103.10;2227.20;;;;;;4934615;29;20590;-57
2021/01/06 04:49:15;;;;;;;81.72;40.60;;;103.10;2227.20;;;;;;4888529;29;20048;-57
2021/01/06 04:51:59;;;;;;;81.35;40.25;;;103.10;2227.20;;;;;;4878240;29;20041;-57
2021/01/06 04:54:39;;;;;;;80.20;44.35;;;103.10;2227.20;;;;;;4896716;29;20096;-57
2021/01/06 04:57:27;;;;;;;112.57;49.83;;;103.10;2227.20;;;;;;4896698;29;20033;-57
2021/01/06 05:00:15;;;;;;;140.65;55.67;;;103.10;2227.20;;;;;;4915171;29;20118;-57
2021/01/06 05:03:04;;;;;;;198.85;65.80;;;103.10;2227.20;;;;;;4934347;29;20551;-57
2021/01/06 05:05:41;;;;;;;130.40;53.38;;;103.10;2227.20;;;;;;4934362;29;20043;-56
2021/01/06 05:08:26;;;;;;;246.38;98.53;;;103.10;2227.20;;;;;;4934597;29;20106;-57
2021/01/06 05:11:00;;;;;;;69.47;36.60;;;103.20;2227.20;;;;;;4934335;29;20043;-57
2021/01/06 05:13:31;;;;;;;59.87;31.73;;;103.20;2227.20;;;;;;4934188;29;20055;-57
2021/01/06 05:16:12;;;;;;;60.17;28.88;;;103.30;2227.20;;;;;;4934593;29;20329;-57
2021/01/06 05:18:39;;;;;;;65.45;30.42;;;103.30;2227.20;;;;;;4937245;29;20138;-57
2021/01/06 05:21:16;;;;;;;61.72;31.63;;;128.00;2252.80;;;;;;4937946;29;20039;-58
2021/01/06 05:23:43;;;;;;;57.10;28.92;;;103.30;2227.20;;;;;;4952005;29;20039;-57
2021/01/06 05:26:09;;;;;;;57.00;28.48;;;128.00;2252.80;;;;;;5021598;28;20129;-57
2021/01/06 05:28:35;;;;;;;58.55;27.42;;;128.10;2252.80;;;;;;5056821;28;20036;-56
2021/01/06 05:31:00;;;;;;;57.55;28.77;;;128.10;2252.80;;;;;;5057263;28;20033;-57
2021/01/06 05:33:40;;;;;;;64.35;33.72;;;128.00;2252.80;;;;;;5056748;28;20040;-57
2021/01/06 05:36:07;;;;;;;65.68;33.92;;;128.10;2252.80;;;;;;5036987;28;20028;-56
2021/01/06 05:38:33;;;;;;;65.97;34.72;;;128.10;2252.80;;;;;;5037308;28;20489;-56
2021/01/06 05:40:59;;;;;;;64.65;35.13;;;128.10;2252.80;;;;;;5037011;28;20044;-57
2021/01/06 05:43:28;;;;;;;67.15;36.22;;;128.20;2252.80;;;;;;5018905;28;20034;-56
2021/01/06 05:45:57;;;;;;;69.90;38.30;;;128.20;2252.80;;;;;;5036870;28;20068;-58
2021/01/06 05:48:49;;;;;;;85.18;42.22;;;128.30;2252.80;;;;;;5033600;28;20511;-58
2021/01/06 05:51:32;;;;;;;179.27;66.07;;;128.30;2252.80;;;;;;5036801;28;20025;-56
2021/01/06 05:54:20;;;;;;;90.38;42.25;;;128.40;2252.80;;;;;;5055897;28;20501;-56
2021/01/06 05:57:01;;;;;;;170.75;98.70;;;128.40;2252.80;;;;;;5056075;28;20036;-57
2021/01/06 05:59:54;;;;;;;117.55;64.25;;;128.30;2252.80;;;;;;5056651;28;20025;-56
2021/01/06 06:02:30;;;;;;;94.25;51.78;;;128.40;2252.80;;;;;;5056489;28;20128;-57
2021/01/06 06:05:33;;;;;;;96.80;49.22;;;128.50;2252.80;;;;;;5056466;28;20025;-57
2021/01/06 06:08:40;;;;;;;170.95;85.95;;;128.50;2252.80;;;;;;5056678;28;20107;-56
2021/01/06 06:11:46;;;;;;;128.15;68.88;;;128.60;2252.80;;;;;;4975799;28;20053;-55
2021/01/06 06:14:37;;;;;;;114.05;60.85;;;128.60;2252.80;;;;;;4975727;28;20039;-56
2021/01/06 06:17:11;;;;;;;105.40;58.70;;;128.60;2252.80;;;;;;4975632;28;20392;-56
2021/01/06 06:19:55;;;;;;;103.35;59.05;;;128.70;2252.80;;;;;;4967064;28;20027;-58
2021/01/06 06:22:26;;;;;;;105.10;53.78;;;128.70;2252.80;;;;;;4955951;29;20043;-56
2021/01/06 06:25:14;;;;;;;87.78;47.55;;;128.60;2252.80;;;;;;4955960;29;20067;-56
2021/01/06 06:27:42;;;;;;;106.93;52.55;;;128.60;2252.80;;;;;;4958821;28;20122;-57
2021/01/06 06:30:15;;;;;;;166.48;80.20;;;128.60;2252.80;;;;;;4966718;28;20023;-57
2021/01/06 06:32:43;;;;;;;176.88;79.03;;;128.60;2252.80;;;;;;4970731;28;20027;-58
2021/01/06 06:35:31;;;;;;;178.93;80.90;;;128.50;2252.80;;;;;;4964499;28;20059;-58
2021/01/06 06:38:03;;;;;;;127.28;65.78;;;128.50;2252.80;;;;;;4955693;29;20035;-57
2021/01/06 06:40:53;;;;;;;117.47;61.45;;;128.50;2252.80;;;;;;4956038;28;20043;-57
2021/01/06 06:43:33;;;;;;;120.93;64.25;;;128.60;2252.80;;;;;;4955948;29;20485;-56
2021/01/06 06:46:31;;;;;;;118.30;64.80;;;128.70;2252.80;;;;;;4955769;29;20084;-66
2021/01/06 06:49:14;;;;;;;131.10;70.80;;;128.60;2252.80;;;;;;4972127;28;20038;-64
2021/01/06 06:51:45;;;;;;;135.13;76.80;;;128.70;2252.80;;;;;;4973928;28;20026;-64
2021/01/06 06:54:22;;;;;;;133.05;73.28;;;128.80;2252.80;;;;;;4974862;28;20097;-64
2021/01/06 06:56:51;;;;;;;134.00;71.40;;;128.90;2252.80;;;;;;4974466;28;20062;-64
2021/01/06 06:59:46;;;;;;;164.40;99.55;;;128.90;2252.80;;;;;;4974417;28;20043;-64
2021/01/06 07:02:12;;;;;;;121.28;66.13;;;128.90;2252.80;;;;;;4974203;28;20428;-65
2021/01/06 07:04:47;;;;;;;125.40;67.38;;;128.90;2252.80;;;;;;4974479;28;20027;-65
2021/01/06 07:07:45;;;;;;;90.07;48.63;;;128.90;2252.80;;;;;;4974099;28;20031;-62
2021/01/06 07:10:20;;;;;;;73.78;39.03;;;128.80;2252.80;;;;;;4973314;28;20035;-63
2021/01/06 07:12:47;;;;;;;85.75;43.75;;;128.80;2252.80;;;;;;4974007;28;20046;-65
2021/01/06 07:15:39;;;;;;;97.25;49.38;;;128.80;2252.80;;;;;;4974061;28;20057;-63
2021/01/06 07:18:21;;;;;;;138.73;75.72;;;128.80;2252.80;;;;;;4974614;28;20070;-64
2021/01/06 07:20:47;;;;;;;123.00;67.93;;;128.80;2252.80;;;;;;4974271;28;20038;-65
2021/01/06 07:23:19;;;;;;;126.45;69.88;;;128.90;2252.80;;;;;;4974064;28;20575;-64
2021/01/06 07:25:48;;;;;;;158.75;94.43;;;128.90;2252.80;;;;;;5012037;28;20082;-64
2021/01/06 07:28:19;;;;;;;140.88;87.75;;;153.60;2252.80;;;;;;5055309;28;20021;-63
2021/01/06 07:30:49;;;;;;;121.93;66.65;;;153.60;2252.80;;;;;;5055387;28;20024;-64
2021/01/06 07:33:34;;;;;;;141.98;88.95;;;153.60;2252.80;;;;;;5037175;28;20386;-62
2021/01/06 07:36:09;;;;;;;112.60;59.17;;;153.60;2252.80;;;;;;5054645;28;20028;-62
2021/01/06 07:38:35;;;;;;;89.82;49.08;;;153.70;2252.80;;;;;;5053981;28;20039;-62
2021/01/06 07:41:00;;;;;;;108.20;57.53;;;153.70;2252.80;;;;;;5051522;28;20041;-61
2021/01/06 07:43:30;;;;;;;104.00;55.75;;;153.70;2252.80;;;;;;5054566;28;20032;-63
2021/01/06 07:46:02;;;;;;;87.75;46.50;;;153.70;2252.80;;;;;;5054920;28;20037;-63
2021/01/06 07:48:46;;;;;;;116.40;60.20;;;153.70;2252.80;;;;;;5054596;28;20033;-63
2021/01/06 07:51:36;;;;;;;88.65;46.42;;;153.60;2252.80;;;;;;5054325;28;20025;-63
2021/01/06 07:54:06;;;;;;;70.88;38.67;;;153.70;2252.80;;;;;;5054505;28;20025;-62
2021/01/06 07:56:42;;;;;;;72.72;41.05;;;153.70;2252.80;;;;;;5054372;28;20036;-63
2021/01/06 07:59:23;;;;;;;57.22;32.45;;;153.80;2252.80;;;;;;5054186;28;20366;-62
2021/01/06 08:02:12;;;;;;;115.85;62.80;;;153.80;2252.80;;;;;;5048624;28;20440;-63
2021/01/06 08:05:00;;;;;;;110.07;59.88;;;153.90;2252.80;;;;;;5034442;28;20025;-62
2021/01/06 08:07:27;;;;;;;57.90;33.35;;;154.00;2252.80;;;;;;5033981;28;20041;-64
2021/01/06 08:09:53;;;;;;;54.13;32.58;;;154.00;2252.80;;;;;;5034187;28;20108;-63
2021/01/06 08:12:24;;;;;;;101.82;57.10;;;154.00;2252.80;;;;;;5034187;28;20104;-63
2021/01/06 08:15:09;;;;;;;179.75;96.38;;;154.10;2252.80;;;;;;5034671;28;20057;-59
2021/01/06 08:17:50;;;;;;;253.07;127.88;;;154.20;2252.80;;;;;;5059744;28;20010;-61
2021/01/06 08:20:24;;;;;;;289.23;139.65;;;154.30;2252.80;;;;;;5058706;28;20006;-62
2021/01/06 08:23:30;;;;;;;255.38;133.98;;;154.20;2252.80;;;;;;5059416;28;20044;-61
2021/01/06 08:26:01;;;;;;;426.58;171.95;;;154.30;2252.80;;;;;;5059473;28;20013;-61
2021/01/06 08:28:30;;;;;;;633.95;244.07;;;154.30;2252.80;;;;;;5059269;28;20077;-62
2021/01/06 08:31:20;;;;;;;281.27;124.88;;;154.50;2252.80;;;;;;5059330;28;20080;-61
2021/01/06 08:33:52;;;;;;;313.60;165.18;;;154.50;2252.80;;;;;;5058966;28;20028;-62
2021/01/06 08:36:38;;;;;;;193.65;104.72;;;179.20;2252.80;;;;;;5059152;28;20025;-62
2021/01/06 08:39:18;;;;;;;106.03;54.10;;;179.20;2252.80;;;;;;5060568;28;20021;-60
2021/01/06 08:41:46;;;;;;;87.03;46.58;;;154.50;2252.80;;;;;;5078949;28;20025;-62
2021/01/06 08:44:37;;;;;;;91.05;43.22;;;179.20;2252.80;;;;;;5078851;28;20009;-63
2021/01/06 08:47:24;;;;;;;104.05;49.97;;;154.50;2252.80;;;;;;5070459;28;20055;-62
2021/01/06 08:49:50;;;;;;;71.75;36.80;;;154.50;2252.80;;;;;;5067439;28;20057;-60
2021/01/06 08:52:16;;;;;;;79.88;41.08;;;154.50;2252.80;;;;;;5066877;28;20028;-59
2021/01/06 08:54:43;;;;;;;90.68;46.40;;;154.50;2252.80;;;;;;5069038;28;20043;-61
2021/01/06 08:57:33;;;;;;;147.35;73.35;;;154.50;2252.80;;;;;;5068906;28;20051;-58
2021/01/06 09:00:21;;;;;;;124.50;63.03;;;179.20;2252.80;;;;;;5065344;28;20005;-58
2021/01/06 09:02:54;;;;;;;103.43;51.35;;;179.30;2252.80;;;;;;5048147;28;20068;-60
2021/01/06 09:05:42;;;;;;;106.03;55.83;;;179.30;2252.80;;;;;;5062302;28;20039;-60
2021/01/06 09:08:32;;;;;;;81.05;41.47;;;179.40;2252.80;;;;;;5063270;28;20020;-59
2021/01/06 09:11:01;;;;;;;89.30;42.35;;;179.50;2252.80;;;;;;5047203;28;20005;-62
2021/01/06 09:13:39;;;;;;;65.28;31.67;;;179.50;2252.80;;;;;;5060123;28;20014;-59
2021/01/06 09:16:26;;;;;;;48.33;27.35;;;179.50;2252.80;;;;;;5066391;28;20069;-61
2021/01/06 09:19:00;;;;;;;50.20;26.33;;;179.50;2252.80;;;;;;5068574;28;20009;-61
2021/01/06 09:21:31;;;;;;;64.75;35.97;;;179.50;2252.80;;;;;;5062617;28;20049;-63
2021/01/06 09:24:11;;;;;;;56.65;32.30;;;179.60;2252.80;;;;;;5058127;28;20032;-63
2021/01/06 09:26:38;;;;;;;57.40;31.92;;;179.90;2252.80;;;;;;5058056;28;20014;-62
2021/01/06 09:29:09;;;;;;;63.63;33.97;;;180.10;2252.80;;;;;;5061479;28;20021;-61
2021/01/06 09:31:41;;;;;;;70.35;38.88;;;204.80;2252.80;;;;;;5070040;28;20013;-61
2021/01/06 09:34:07;;;;;;;75.00;35.90;;;204.90;2252.80;;;;;;5066394;28;20013;-62
2021/01/06 09:36:35;;;;;;;262.92;126.03;;;204.90;2252.80;;;;;;5068555;28;20028;-63
2021/01/06 09:39:03;;;;;;;107.68;53.20;;;205.10;2252.80;;;;;;5069534;28;20025;-62
2021/01/06 09:41:32;;;;;;;98.22;51.17;;;205.20;2252.80;;;;;;5054233;28;20033;-62
2021/01/06 09:44:03;;;;;;;141.35;74.50;;;205.50;2252.80;;;;;;5057037;28;20009;-61
2021/01/06 09:46:41;;;;;;;91.65;49.53;;;205.60;2252.80;;;;;;5078369;28;20044;-62
2021/01/06 09:49:16;;;;;;;106.85;55.47;;;230.50;2227.20;;;;;;5078259;28;20005;-62
2021/01/06 09:51:47;;;;;;;84.25;43.13;;;205.70;2201.60;;;;;;5078077;28;20009;-61
2021/01/06 09:54:14;;;;;;;56.47;32.00;;;230.40;2227.20;;;;;;5072621;28;20021;-61
2021/01/06 09:56:40;;;;;;;61.88;33.63;;;230.40;2201.60;;;;;;5069297;28;20067;-62
2021/01/06 09:59:23;;;;;;;55.10;29.70;;;205.70;2227.20;;;;;;5071917;28;20038;-60
2021/01/06 10:01:58;;;;;;;44.05;25.92;;;230.50;2201.60;;;;;;5065863;28;20026;-61
2021/01/06 10:04:28;;;;;;;23.00;13.48;;;230.60;2201.60;;;;;;5069662;28;20008;-61
2021/01/06 10:07:04;;;;;;;92.10;51.30;;;230.60;2176.00;;;;;;5069026;28;20136;-60
2021/01/06 10:09:37;;;;;;;79.75;44.05;;;230.70;2176.00;;;;;;5045228;28;20045;-62
2021/01/06 10:12:28;;;;;;;35.60;20.98;;;230.70;2176.00;;;;;;5069708;28;20040;-62
2021/01/06 10:15:33;;;;;;;23.60;13.10;;;256.00;2099.20;;;;;;5080581;28;20021;-60
2021/01/06 10:18:43;;;;;;;42.90;25.33;;;307.60;1843.20;;;;;;5069238;28;20017;-62
2021/01/06 10:21:17;;;;;;;10.02;6.97;;;359.20;1510.40;;;;;;5015403;28;20106;-62
2021/01/06 10:24:22;;;;;;;12.55;8.80;;;384.90;1382.40;;;;;;5020513;28;20021;-62
2021/01/06 10:26:54;;;;;;;33.47;22.45;;;410.30;1331.20;;;;;;4982352;28;20075;-63
2021/01/06 10:29:34;;;;;;;19.48;13.05;;;384.80;1382.40;;;;;;4982299;28;20061;-63
2021/01/06 10:32:12;;;;;;;43.53;30.60;;;384.50;1408.00;;;;;;4982119;28;20042;-63
2021/01/06 10:34:43;;;;;;;31.42;21.35;;;384.50;1408.00;;;;;;4982124;28;20007;-62
2021/01/06 10:37:30;;;;;;;39.15;26.40;;;384.80;1382.40;;;;;;4982092;28;20047;-62
2021/01/06 10:40:16;;;;;;;29.35;19.77;;;359.30;1433.60;;;;;;4982204;28;20015;-62
2021/01/06 10:42:42;;;;;;;17.65;12.20;;;359.20;1484.80;;;;;;4978165;28;20023;-61
2021/01/06 10:45:34;;;;;;;118.00;78.25;;;384.40;1408.00;;;;;;4979302;28;20075;-61
2021/01/06 10:48:00;;;;;;;83.70;53.38;;;384.00;1408.00;;;;;;4981809;28;20019;-61
2021/01/06 10:50:29;;;;;;;184.30;113.15;;;384.10;1408.00;;;;;;4981924;28;20047;-62
2021/01/06 10:53:20;;;;;;;80.25;48.42;;;359.20;1459.20;;;;;;4981848;28;20023;-62
2021/01/06 10:55:53;;;;;;;87.78;51.58;;;359.10;1484.80;;;;;;4980386;28;20078;-62
2021/01/06 10:58:37;;;;;;;102.82;59.58;;;358.90;1484.80;;;;;;5026927;28;20034;-62
2021/01/06 11:01:08;;;;;;;129.43;78.93;;;333.40;1587.20;;;;;;5023611;28;20034;-62
2021/01/06 11:03:34;;;;;;;79.10;47.83;;;308.10;1664.00;;;;;;5057580;28;20059;-62
2021/01/06 11:06:37;;;;;;;67.97;39.00;;;307.70;1689.60;;;;;;5080402;28;20082;-63
2021/01/06 11:09:22;;;;;;;66.50;38.20;;;307.70;1689.60;;;;;;5001064;28;20094;-63
2021/01/06 11:12:05;;;;;;;123.85;75.68;;;307.20;1766.40;;;;;;5001179;28;20019;-63
2021/01/06 11:14:56;;;;;;;85.43;52.92;;;282.50;1766.40;;;;;;5000014;28;20098;-62
2021/01/06 11:17:38;;;;;;;45.97;28.30;;;282.40;1792.00;;;;;;4962289;29;20020;-61
2021/01/06 11:20:23;;;;;;;114.25;71.28;;;307.40;1766.40;;;;;;4961947;29;20080;-63
2021/01/06 11:22:50;;;;;;;146.82;91.93;;;307.20;1792.00;;;;;;4962084;29;20104;-62
2021/01/06 11:25:51;;;;;;;118.28;67.85;;;282.40;1817.60;;;;;;4962219;29;20031;-62
2021/01/06 11:28:29;;;;;;;92.45;49.80;;;282.50;1817.60;;;;;;4962081;29;20056;-62
2021/01/06 11:31:06;;;;;;;68.82;36.97;;;282.40;1766.40;;;;;;4962135;29;20024;-62
2021/01/06 11:33:34;;;;;;;90.30;48.60;;;282.00;1817.60;;;;;;4962053;29;20030;-62
2021/01/06 11:36:16;;;;;;;134.00;81.85;;;282.00;1817.60;;;;;;4962030;29;20023;-63
2021/01/06 11:38:41;;;;;;;133.20;75.18;;;281.80;1843.20;;;;;;4962009;29;20071;-63
2021/01/06 11:41:30;;;;;;;103.68;71.18;;;256.90;1843.20;;;;;;4961823;28;20043;-61
2021/01/06 11:44:17;;;;;;;109.20;70.50;;;256.60;1868.80;;;;;;4942790;29;20021;-63
2021/01/06 11:46:52;;;;;;;100.35;60.33;;;256.50;1894.40;;;;;;4957503;29;20076;-62
2021/01/06 11:49:48;;;;;;;112.60;67.38;;;256.00;1945.60;;;;;;4955962;29;20028;-61
2021/01/06 11:52:38;;;;;;;145.85;83.95;;;256.20;1945.60;;;;;;4938751;29;20024;-61
2021/01/06 11:55:27;;;;;;;85.07;51.13;;;256.20;1971.20;;;;;;5011831;28;20030;-63
2021/01/06 11:57:55;;;;;;;205.27;136.90;;;256.40;1945.60;;;;;;5019690;28;20022;-65
2021/01/06 12:00:42;;;;;;;58.30;35.28;;;256.30;1945.60;;;;;;5019663;28;20014;-63
2021/01/06 12:03:07;;;;;;;69.25;42.30;;;256.30;1971.20;;;;;;5019770;28;20083;-62
2021/01/06 12:05:55;;;;;;;61.42;41.15;;;256.30;1996.80;;;;;;5019662;28;20015;-64
2021/01/06 12:08:31;;;;;;;48.05;31.08;;;256.30;1971.20;;;;;;4980453;28;20027;-63
2021/01/06 12:11:02;;;;;;;41.35;25.92;;;256.60;1945.60;;;;;;4964649;29;20090;-63
2021/01/06 12:13:50;;;;;;;70.28;44.67;;;256.70;1894.40;;;;;;4980503;28;20051;-63
2021/01/06 12:16:23;;;;;;;63.80;32.33;;;256.80;1945.60;;;;;;4980616;28;20035;-64
2021/01/06 12:18:57;;;;;;;79.90;50.35;;;256.80;1920.00;;;;;;4980475;28;20019;-64
2021/01/06 12:21:45;;;;;;;72.93;41.35;;;256.50;1971.20;;;;;;5008402;28;20050;-64
2021/01/06 12:24:29;;;;;;;63.83;39.25;;;256.70;1945.60;;;;;;5019298;28;20082;-65
2021/01/06 12:27:03;;;;;;;56.53;35.00;;;256.80;1945.60;;;;;;5019134;28;20029;-65
2021/01/06 12:29:46;;;;;;;47.83;30.45;;;256.80;1945.60;;;;;;5019314;28;20083;-64
2021/01/06 12:32:23;;;;;;;82.10;50.53;;;256.80;1945.60;;;;;;5019171;28;20029;-62
2021/01/06 12:34:53;;;;;;;80.03;45.45;;;256.60;1996.80;;;;;;5019197;28;20079;-63
2021/01/06 12:37:29;;;;;;;48.33;29.98;;;256.70;1996.80;;;;;;5019108;28;20030;-63